PHKAY FOOL-FOOG
Flight info
| Callsign | PHKAY |
|---|---|
| Flight time | 1h 14m |
| Altitude | 3500 |
| Route | FOGR |
| Aircraft | BE36/L-VGDW/C |
Departure
| Time | 2026-04-13 18:15 |
|---|---|
| Airport | Libreville Leon M'ba International Airport (FOOL) |
Arrival
| Time | 2026-04-13 19:30 |
|---|---|
| Airport | Port Gentil International Airport (FOOG) |
| Time | Latitude | Longitude | Altitude | Speed | Heading |
|---|---|---|---|---|---|
| 2026-04-13 17:54 | 0.45831 | 9.41038 | 36 ft | 0 kts | 245° |
| 2026-04-13 18:10 | 0.45825 | 9.41041 | 36 ft | 3 kts | 73° |
| 2026-04-13 18:10 | 0.45847 | 9.41075 | 36 ft | 6 kts | 71° |
| 2026-04-13 18:10 | 0.45814 | 9.41100 | 36 ft | 6 kts | 123° |
| 2026-04-13 18:11 | 0.45805 | 9.41144 | 36 ft | 0 kts | 77° |
| 2026-04-13 18:11 | 0.45809 | 9.41156 | 36 ft | 0 kts | 68° |
| 2026-04-13 18:12 | 0.45831 | 9.41196 | 36 ft | 18 kts | 45° |
| 2026-04-13 18:13 | 0.45875 | 9.41221 | 36 ft | 0 kts | 335° |
| 2026-04-13 18:14 | 0.45922 | 9.41199 | 36 ft | 25 kts | 334° |
| 2026-04-13 18:15 | 0.46299 | 9.41016 | 39 ft | 90 kts | 334° |
| 2026-04-13 18:15 | 0.46948 | 9.40714 | 199 ft | 102 kts | 333° |
| 2026-04-13 18:15 | 0.47570 | 9.40432 | 533 ft | 95 kts | 330° |
| 2026-04-13 18:15 | 0.48015 | 9.39983 | 861 ft | 92 kts | 290° |
| 2026-04-13 18:16 | 0.48007 | 9.39376 | 1184 ft | 90 kts | 245° |
| 2026-04-13 18:16 | 0.47549 | 9.38777 | 1219 ft | 124 kts | 230° |
| 2026-04-13 18:16 | 0.46945 | 9.38049 | 1214 ft | 147 kts | 231° |
| 2026-04-13 18:16 | 0.46247 | 9.37205 | 1199 ft | 164 kts | 231° |
| 2026-04-13 18:17 | 0.45484 | 9.36297 | 1179 ft | 174 kts | 227° |
| 2026-04-13 18:17 | 0.44321 | 9.35881 | 1157 ft | 182 kts | 179° |
| 2026-04-13 18:17 | 0.43160 | 9.36433 | 1169 ft | 185 kts | 140° |
| 2026-04-13 18:17 | 0.42302 | 9.37255 | 1173 ft | 178 kts | 137° |
| 2026-04-13 18:18 | 0.41719 | 9.37818 | 1315 ft | 165 kts | 136° |
| 2026-04-13 18:18 | 0.40884 | 9.38607 | 1375 ft | 161 kts | 136° |
| 2026-04-13 18:18 | 0.40038 | 9.39407 | 1386 ft | 163 kts | 136° |
| 2026-04-13 18:18 | 0.39162 | 9.40236 | 1390 ft | 171 kts | 136° |
| 2026-04-13 18:19 | 0.38299 | 9.41050 | 1481 ft | 171 kts | 136° |
| 2026-04-13 18:19 | 0.37421 | 9.41878 | 1607 ft | 171 kts | 137° |
| 2026-04-13 18:19 | 0.36500 | 9.42627 | 1731 ft | 170 kts | 141° |
| 2026-04-13 18:19 | 0.35558 | 9.43374 | 1858 ft | 170 kts | 141° |
| 2026-04-13 18:20 | 0.34609 | 9.44126 | 1986 ft | 170 kts | 141° |
| 2026-04-13 18:20 | 0.33680 | 9.44862 | 2111 ft | 170 kts | 141° |
| 2026-04-13 18:20 | 0.32687 | 9.45647 | 2244 ft | 170 kts | 141° |
| 2026-04-13 18:20 | 0.31714 | 9.46367 | 2372 ft | 170 kts | 144° |
| 2026-04-13 18:21 | 0.30735 | 9.47065 | 2476 ft | 172 kts | 144° |
| 2026-04-13 18:21 | 0.29749 | 9.47765 | 2498 ft | 176 kts | 144° |
| 2026-04-13 18:21 | 0.28717 | 9.48499 | 2501 ft | 180 kts | 144° |
| 2026-04-13 18:21 | 0.27689 | 9.49230 | 2500 ft | 182 kts | 144° |
| 2026-04-13 18:22 | 0.26663 | 9.49958 | 2500 ft | 182 kts | 144° |
| 2026-04-13 18:22 | 0.25619 | 9.50700 | 2528 ft | 181 kts | 144° |
| 2026-04-13 18:22 | 0.25105 | 9.51065 | 2590 ft | 179 kts | 144° |
| 2026-04-13 18:22 | 0.24101 | 9.51779 | 2713 ft | 175 kts | 144° |
| 2026-04-13 18:23 | 0.23102 | 9.52488 | 2837 ft | 173 kts | 144° |
| 2026-04-13 18:23 | 0.22127 | 9.53181 | 2960 ft | 172 kts | 144° |
| 2026-04-13 18:23 | 0.21136 | 9.53885 | 2968 ft | 178 kts | 144° |
| 2026-04-13 18:23 | 0.20097 | 9.54623 | 2966 ft | 181 kts | 144° |
| 2026-04-13 18:24 | 0.19049 | 9.55368 | 2965 ft | 182 kts | 144° |
| 2026-04-13 18:24 | 0.18026 | 9.56096 | 2964 ft | 181 kts | 144° |
| 2026-04-13 18:24 | 0.16986 | 9.56835 | 2964 ft | 180 kts | 144° |
| 2026-04-13 18:24 | 0.15972 | 9.57555 | 2964 ft | 180 kts | 144° |
| 2026-04-13 18:25 | 0.14947 | 9.58284 | 2964 ft | 180 kts | 144° |
| 2026-04-13 18:25 | 0.13930 | 9.59006 | 2964 ft | 180 kts | 144° |
| 2026-04-13 18:25 | 0.12901 | 9.59738 | 2964 ft | 179 kts | 144° |
| 2026-04-13 18:25 | 0.11880 | 9.60463 | 2964 ft | 179 kts | 144° |
| 2026-04-13 18:26 | 0.10850 | 9.61195 | 2964 ft | 179 kts | 144° |
| 2026-04-13 18:26 | 0.09817 | 9.61929 | 2964 ft | 179 kts | 144° |
| 2026-04-13 18:26 | 0.08797 | 9.62653 | 2964 ft | 179 kts | 144° |
| 2026-04-13 18:26 | 0.07779 | 9.63376 | 2964 ft | 179 kts | 144° |
| 2026-04-13 18:27 | 0.06753 | 9.64105 | 2964 ft | 179 kts | 144° |
| 2026-04-13 18:27 | 0.05735 | 9.64828 | 2964 ft | 179 kts | 144° |
| 2026-04-13 18:27 | 0.04690 | 9.65571 | 2964 ft | 179 kts | 144° |
| 2026-04-13 18:27 | 0.03671 | 9.66295 | 2964 ft | 179 kts | 144° |
| 2026-04-13 18:28 | 0.02641 | 9.67027 | 2964 ft | 179 kts | 144° |
| 2026-04-13 18:28 | 0.01622 | 9.67751 | 2964 ft | 179 kts | 144° |
| 2026-04-13 18:28 | 0.00591 | 9.68483 | 2964 ft | 179 kts | 144° |
| 2026-04-13 18:28 | -0.00458 | 9.69228 | 2964 ft | 179 kts | 144° |
| 2026-04-13 18:29 | -0.01478 | 9.69953 | 2964 ft | 179 kts | 144° |
| 2026-04-13 18:29 | -0.02500 | 9.70679 | 2964 ft | 179 kts | 144° |
| 2026-04-13 18:29 | -0.03526 | 9.71408 | 2964 ft | 179 kts | 144° |
| 2026-04-13 18:29 | -0.04546 | 9.72133 | 2964 ft | 179 kts | 144° |
| 2026-04-13 18:30 | -0.05571 | 9.72861 | 2964 ft | 179 kts | 144° |
| 2026-04-13 18:30 | -0.06599 | 9.73592 | 2964 ft | 179 kts | 144° |
| 2026-04-13 18:30 | -0.07618 | 9.74315 | 2964 ft | 179 kts | 144° |
| 2026-04-13 18:30 | -0.08646 | 9.75046 | 2964 ft | 179 kts | 144° |
| 2026-04-13 18:31 | -0.09669 | 9.75773 | 2964 ft | 179 kts | 144° |
| 2026-04-13 18:31 | -0.10742 | 9.76536 | 2964 ft | 179 kts | 144° |
| 2026-04-13 18:31 | -0.11761 | 9.77259 | 2964 ft | 179 kts | 144° |
| 2026-04-13 18:31 | -0.12780 | 9.77984 | 2964 ft | 179 kts | 144° |
| 2026-04-13 18:32 | -0.13800 | 9.78709 | 2964 ft | 179 kts | 144° |
| 2026-04-13 18:32 | -0.14829 | 9.79440 | 2964 ft | 179 kts | 144° |
| 2026-04-13 18:32 | -0.15854 | 9.80168 | 2964 ft | 179 kts | 144° |
| 2026-04-13 18:32 | -0.16875 | 9.80893 | 2964 ft | 179 kts | 144° |
| 2026-04-13 18:33 | -0.17902 | 9.81623 | 2964 ft | 179 kts | 144° |
| 2026-04-13 18:33 | -0.18920 | 9.82347 | 2964 ft | 179 kts | 144° |
| 2026-04-13 18:33 | -0.19945 | 9.83076 | 2964 ft | 179 kts | 144° |
| 2026-04-13 18:34 | -0.21972 | 9.84516 | 2964 ft | 179 kts | 144° |
| 2026-04-13 18:34 | -0.23003 | 9.85249 | 2964 ft | 179 kts | 144° |
| 2026-04-13 18:34 | -0.24021 | 9.85973 | 2964 ft | 179 kts | 144° |
| 2026-04-13 18:34 | -0.25051 | 9.86704 | 2964 ft | 179 kts | 144° |
| 2026-04-13 18:35 | -0.26070 | 9.87429 | 2964 ft | 179 kts | 144° |
| 2026-04-13 18:35 | -0.27087 | 9.88152 | 2964 ft | 179 kts | 144° |
| 2026-04-13 18:35 | -0.28115 | 9.88883 | 2964 ft | 179 kts | 144° |
| 2026-04-13 18:35 | -0.29137 | 9.89609 | 2964 ft | 179 kts | 144° |
| 2026-04-13 18:36 | -0.30163 | 9.90338 | 2964 ft | 179 kts | 144° |
| 2026-04-13 18:36 | -0.31184 | 9.91064 | 2964 ft | 179 kts | 144° |
| 2026-04-13 18:36 | -0.32200 | 9.91786 | 2964 ft | 179 kts | 144° |
| 2026-04-13 18:36 | -0.33205 | 9.92501 | 2964 ft | 179 kts | 144° |
| 2026-04-13 18:37 | -0.33894 | 9.92991 | 2964 ft | 179 kts | 144° |
| 2026-04-13 18:37 | -0.35243 | 9.93950 | 2964 ft | 179 kts | 144° |
| 2026-04-13 18:37 | -0.36272 | 9.94681 | 2964 ft | 179 kts | 144° |
| 2026-04-13 18:37 | -0.37291 | 9.95406 | 2964 ft | 179 kts | 144° |
| 2026-04-13 18:38 | -0.38313 | 9.96132 | 2964 ft | 179 kts | 144° |
| 2026-04-13 18:38 | -0.39319 | 9.96847 | 2959 ft | 171 kts | 144° |
| 2026-04-13 18:38 | -0.40254 | 9.97511 | 2956 ft | 153 kts | 144° |
| 2026-04-13 18:38 | -0.41098 | 9.98113 | 2957 ft | 141 kts | 144° |
| 2026-04-13 18:39 | -0.41881 | 9.98671 | 2959 ft | 134 kts | 144° |
| 2026-04-13 18:39 | -0.42633 | 9.99207 | 2960 ft | 128 kts | 144° |
| 2026-04-13 18:39 | -0.43354 | 9.99721 | 2959 ft | 121 kts | 144° |
| 2026-04-13 18:39 | -0.44034 | 10.00207 | 2958 ft | 114 kts | 144° |
| 2026-04-13 18:40 | -0.44657 | 10.00651 | 2958 ft | 106 kts | 144° |
| 2026-04-13 18:40 | -0.45240 | 10.01068 | 2955 ft | 96 kts | 144° |
| 2026-04-13 18:40 | -0.45768 | 10.01446 | 2960 ft | 92 kts | 144° |
| 2026-04-13 18:40 | -0.46304 | 10.01830 | 2968 ft | 98 kts | 144° |
| 2026-04-13 18:41 | -0.46870 | 10.02235 | 2965 ft | 99 kts | 144° |
| 2026-04-13 18:41 | -0.47415 | 10.02655 | 2959 ft | 97 kts | 130° |
| 2026-04-13 18:41 | -0.47769 | 10.03213 | 2958 ft | 91 kts | 114° |
| 2026-04-13 18:41 | -0.47983 | 10.03808 | 2964 ft | 93 kts | 108° |
| 2026-04-13 18:42 | -0.48158 | 10.04483 | 2975 ft | 106 kts | 99° |
| 2026-04-13 18:42 | -0.48280 | 10.05259 | 2974 ft | 119 kts | 101° |
| 2026-04-13 18:42 | -0.48507 | 10.06124 | 2973 ft | 134 kts | 108° |
| 2026-04-13 18:42 | -0.48854 | 10.07049 | 2972 ft | 149 kts | 115° |
| 2026-04-13 18:43 | -0.49449 | 10.07955 | 2970 ft | 161 kts | 128° |
| 2026-04-13 18:43 | -0.50185 | 10.08859 | 2968 ft | 169 kts | 130° |
| 2026-04-13 18:43 | -0.51000 | 10.09747 | 2967 ft | 174 kts | 135° |
| 2026-04-13 18:43 | -0.51878 | 10.10623 | 2965 ft | 176 kts | 135° |
| 2026-04-13 18:44 | -0.52749 | 10.11488 | 2965 ft | 178 kts | 135° |
| 2026-04-13 18:44 | -0.53624 | 10.12357 | 2963 ft | 175 kts | 135° |
| 2026-04-13 18:44 | -0.54490 | 10.13217 | 2963 ft | 173 kts | 135° |
| 2026-04-13 18:44 | -0.55340 | 10.14061 | 2963 ft | 172 kts | 135° |
| 2026-04-13 18:45 | -0.56199 | 10.14914 | 2963 ft | 170 kts | 135° |
| 2026-04-13 18:45 | -0.57040 | 10.15750 | 2962 ft | 167 kts | 135° |
| 2026-04-13 18:45 | -0.57864 | 10.16569 | 2958 ft | 165 kts | 135° |
| 2026-04-13 18:45 | -0.58692 | 10.17391 | 2826 ft | 165 kts | 135° |
| 2026-04-13 18:46 | -0.59490 | 10.18184 | 2694 ft | 154 kts | 135° |
| 2026-04-13 18:46 | -0.60203 | 10.18892 | 2546 ft | 132 kts | 135° |
| 2026-04-13 18:46 | -0.60820 | 10.19508 | 2402 ft | 117 kts | 135° |
| 2026-04-13 18:46 | -0.61388 | 10.20076 | 2266 ft | 110 kts | 135° |
| 2026-04-13 18:47 | -0.61916 | 10.20602 | 2129 ft | 103 kts | 135° |
| 2026-04-13 18:47 | -0.62411 | 10.21097 | 2017 ft | 96 kts | 135° |
| 2026-04-13 18:47 | -0.62867 | 10.21553 | 1989 ft | 91 kts | 135° |
| 2026-04-13 18:47 | -0.63310 | 10.22004 | 1933 ft | 90 kts | 128° |
| 2026-04-13 18:48 | -0.63637 | 10.22541 | 1880 ft | 88 kts | 119° |
| 2026-04-13 18:48 | -0.63942 | 10.23091 | 1834 ft | 91 kts | 119° |
| 2026-04-13 18:48 | -0.64301 | 10.23625 | 1787 ft | 93 kts | 132° |
| 2026-04-13 18:48 | -0.64756 | 10.24097 | 1740 ft | 95 kts | 134° |
| 2026-04-13 18:49 | -0.65245 | 10.24591 | 1625 ft | 104 kts | 135° |
| 2026-04-13 18:49 | -0.65772 | 10.25121 | 1510 ft | 111 kts | 135° |
| 2026-04-13 18:49 | -0.66335 | 10.25686 | 1392 ft | 116 kts | 135° |
| 2026-04-13 18:49 | -0.66928 | 10.26282 | 1271 ft | 121 kts | 135° |
| 2026-04-13 18:50 | -0.67558 | 10.26848 | 1144 ft | 125 kts | 152° |
| 2026-04-13 18:50 | -0.68343 | 10.26778 | 781 ft | 124 kts | 220° |
| 2026-04-13 18:50 | -0.68787 | 10.26143 | 483 ft | 97 kts | 235° |
| 2026-04-13 18:50 | -0.69227 | 10.25643 | 253 ft | 99 kts | 221° |
| 2026-04-13 18:51 | -0.69743 | 10.25168 | 127 ft | 103 kts | 223° |
| 2026-04-13 18:51 | -0.70196 | 10.24756 | 86 ft | 73 kts | 222° |
| 2026-04-13 18:51 | -0.70620 | 10.24371 | 89 ft | 92 kts | 222° |
| 2026-04-13 18:51 | -0.71145 | 10.23893 | 120 ft | 98 kts | 223° |
| 2026-04-13 18:52 | -0.71624 | 10.23463 | 265 ft | 91 kts | 221° |
| 2026-04-13 18:52 | -0.71970 | 10.22949 | 477 ft | 88 kts | 249° |
| 2026-04-13 18:52 | -0.72104 | 10.22309 | 705 ft | 93 kts | 262° |
| 2026-04-13 18:52 | -0.72065 | 10.21663 | 977 ft | 94 kts | 285° |
| 2026-04-13 18:53 | -0.71816 | 10.20946 | 1170 ft | 110 kts | 289° |
| 2026-04-13 18:53 | -0.71529 | 10.20134 | 1190 ft | 135 kts | 289° |
| 2026-04-13 18:53 | -0.71235 | 10.19174 | 1179 ft | 152 kts | 282° |
| 2026-04-13 18:53 | -0.71052 | 10.18100 | 1173 ft | 161 kts | 276° |
| 2026-04-13 18:54 | -0.70917 | 10.16958 | 1170 ft | 166 kts | 276° |
| 2026-04-13 18:54 | -0.70844 | 10.15788 | 1169 ft | 169 kts | 271° |
| 2026-04-13 18:54 | -0.70810 | 10.14594 | 1168 ft | 173 kts | 271° |
| 2026-04-13 18:54 | -0.70777 | 10.13384 | 1168 ft | 174 kts | 271° |
| 2026-04-13 18:55 | -0.70744 | 10.12154 | 1167 ft | 175 kts | 271° |
| 2026-04-13 18:55 | -0.70711 | 10.10923 | 1167 ft | 176 kts | 271° |
| 2026-04-13 18:55 | -0.70678 | 10.09683 | 1167 ft | 176 kts | 271° |
| 2026-04-13 18:55 | -0.70645 | 10.08444 | 1167 ft | 176 kts | 271° |
| 2026-04-13 18:56 | -0.70612 | 10.07202 | 1167 ft | 177 kts | 271° |
| 2026-04-13 18:56 | -0.70579 | 10.05964 | 1167 ft | 177 kts | 271° |
| 2026-04-13 18:56 | -0.70546 | 10.04727 | 1167 ft | 177 kts | 271° |
| 2026-04-13 18:56 | -0.70514 | 10.03514 | 1166 ft | 177 kts | 271° |
| 2026-04-13 18:57 | -0.70481 | 10.02277 | 1166 ft | 177 kts | 271° |
| 2026-04-13 18:57 | -0.70449 | 10.01044 | 1166 ft | 177 kts | 271° |
| 2026-04-13 18:57 | -0.70435 | 10.00518 | 1166 ft | 177 kts | 271° |
| 2026-04-13 18:57 | -0.70402 | 9.99267 | 1166 ft | 177 kts | 271° |
| 2026-04-13 18:58 | -0.70370 | 9.98039 | 1166 ft | 177 kts | 271° |
| 2026-04-13 18:58 | -0.70338 | 9.96803 | 1166 ft | 177 kts | 271° |
| 2026-04-13 18:58 | -0.70306 | 9.95585 | 1166 ft | 177 kts | 271° |
| 2026-04-13 18:58 | -0.70274 | 9.94340 | 1166 ft | 177 kts | 271° |
| 2026-04-13 18:59 | -0.70242 | 9.93101 | 1166 ft | 177 kts | 271° |
| 2026-04-13 18:59 | -0.70210 | 9.91857 | 1166 ft | 177 kts | 271° |
| 2026-04-13 18:59 | -0.70178 | 9.90623 | 1166 ft | 177 kts | 271° |
| 2026-04-13 18:59 | -0.70147 | 9.89395 | 1166 ft | 177 kts | 271° |
| 2026-04-13 19:00 | -0.70125 | 9.88573 | 1166 ft | 177 kts | 271° |
| 2026-04-13 19:00 | -0.70083 | 9.86935 | 1166 ft | 177 kts | 271° |
| 2026-04-13 19:00 | -0.70051 | 9.85676 | 1166 ft | 177 kts | 271° |
| 2026-04-13 19:00 | -0.70020 | 9.84445 | 1211 ft | 174 kts | 271° |
| 2026-04-13 19:01 | -0.69989 | 9.83228 | 1286 ft | 172 kts | 271° |
| 2026-04-13 19:01 | -0.69959 | 9.82030 | 1360 ft | 170 kts | 271° |
| 2026-04-13 19:01 | -0.69929 | 9.80831 | 1435 ft | 170 kts | 271° |
| 2026-04-13 19:01 | -0.69899 | 9.79657 | 1489 ft | 170 kts | 271° |
| 2026-04-13 19:02 | -0.69869 | 9.78449 | 1499 ft | 173 kts | 271° |
| 2026-04-13 19:02 | -0.69838 | 9.77226 | 1500 ft | 175 kts | 271° |
| 2026-04-13 19:02 | -0.69808 | 9.76023 | 1536 ft | 174 kts | 271° |
| 2026-04-13 19:02 | -0.69778 | 9.74803 | 1586 ft | 173 kts | 271° |
| 2026-04-13 19:03 | -0.69748 | 9.73593 | 1636 ft | 172 kts | 271° |
| 2026-04-13 19:03 | -0.69718 | 9.72378 | 1685 ft | 172 kts | 271° |
| 2026-04-13 19:03 | -0.69687 | 9.71141 | 1698 ft | 174 kts | 271° |
| 2026-04-13 19:03 | -0.69657 | 9.69917 | 1700 ft | 175 kts | 271° |
| 2026-04-13 19:04 | -0.69627 | 9.68690 | 1700 ft | 176 kts | 271° |
| 2026-04-13 19:04 | -0.69596 | 9.67442 | 1700 ft | 177 kts | 271° |
| 2026-04-13 19:04 | -0.69565 | 9.66160 | 1700 ft | 177 kts | 271° |
| 2026-04-13 19:04 | -0.69534 | 9.64896 | 1700 ft | 177 kts | 271° |
| 2026-04-13 19:05 | -0.69504 | 9.63655 | 1700 ft | 177 kts | 271° |
| 2026-04-13 19:05 | -0.69473 | 9.62396 | 1700 ft | 177 kts | 271° |
| 2026-04-13 19:05 | -0.69443 | 9.61140 | 1700 ft | 177 kts | 271° |
| 2026-04-13 19:05 | -0.69413 | 9.59883 | 1700 ft | 177 kts | 271° |
| 2026-04-13 19:06 | -0.69381 | 9.58574 | 1700 ft | 177 kts | 271° |
| 2026-04-13 19:06 | -0.69350 | 9.57254 | 1700 ft | 177 kts | 271° |
| 2026-04-13 19:06 | -0.69319 | 9.55972 | 1700 ft | 177 kts | 271° |
| 2026-04-13 19:06 | -0.69289 | 9.54718 | 1700 ft | 177 kts | 271° |
| 2026-04-13 19:07 | -0.69259 | 9.53459 | 1700 ft | 177 kts | 271° |
| 2026-04-13 19:07 | -0.69230 | 9.52218 | 1700 ft | 177 kts | 271° |
| 2026-04-13 19:07 | -0.69201 | 9.50981 | 1700 ft | 177 kts | 271° |
| 2026-04-13 19:07 | -0.69171 | 9.49726 | 1700 ft | 177 kts | 271° |
| 2026-04-13 19:08 | -0.69142 | 9.48496 | 1700 ft | 177 kts | 271° |
| 2026-04-13 19:08 | -0.69112 | 9.47239 | 1695 ft | 171 kts | 271° |
| 2026-04-13 19:08 | -0.69085 | 9.46081 | 1694 ft | 159 kts | 271° |
| 2026-04-13 19:08 | -0.69061 | 9.45009 | 1694 ft | 150 kts | 271° |
| 2026-04-13 19:09 | -0.69038 | 9.43985 | 1694 ft | 140 kts | 271° |
| 2026-04-13 19:09 | -0.69017 | 9.43043 | 1694 ft | 131 kts | 271° |
| 2026-04-13 19:09 | -0.68998 | 9.42127 | 1698 ft | 130 kts | 271° |
| 2026-04-13 19:09 | -0.68978 | 9.41222 | 1699 ft | 130 kts | 271° |
| 2026-04-13 19:10 | -0.68958 | 9.40299 | 1699 ft | 129 kts | 271° |
| 2026-04-13 19:10 | -0.68937 | 9.39316 | 1699 ft | 129 kts | 271° |
| 2026-04-13 19:10 | -0.68916 | 9.38344 | 1699 ft | 129 kts | 271° |
| 2026-04-13 19:10 | -0.68896 | 9.37416 | 1699 ft | 127 kts | 271° |
| 2026-04-13 19:11 | -0.68877 | 9.36545 | 1697 ft | 123 kts | 271° |
| 2026-04-13 19:11 | -0.68859 | 9.35730 | 1693 ft | 112 kts | 271° |
| 2026-04-13 19:11 | -0.68844 | 9.34971 | 1693 ft | 104 kts | 271° |
| 2026-04-13 19:11 | -0.68830 | 9.34268 | 1694 ft | 99 kts | 271° |
| 2026-04-13 19:12 | -0.68816 | 9.33567 | 1699 ft | 100 kts | 271° |
| 2026-04-13 19:12 | -0.68802 | 9.32866 | 1700 ft | 100 kts | 271° |
| 2026-04-13 19:12 | -0.68788 | 9.32156 | 1701 ft | 102 kts | 271° |
| 2026-04-13 19:12 | -0.68773 | 9.31412 | 1707 ft | 112 kts | 271° |
| 2026-04-13 19:13 | -0.68756 | 9.30607 | 1703 ft | 117 kts | 271° |
| 2026-04-13 19:13 | -0.68739 | 9.29787 | 1698 ft | 114 kts | 271° |
| 2026-04-13 19:13 | -0.68722 | 9.28973 | 1696 ft | 109 kts | 271° |
| 2026-04-13 19:13 | -0.68706 | 9.28187 | 1696 ft | 105 kts | 271° |
| 2026-04-13 19:14 | -0.68692 | 9.27450 | 1697 ft | 103 kts | 271° |
| 2026-04-13 19:14 | -0.68677 | 9.26733 | 1698 ft | 101 kts | 271° |
| 2026-04-13 19:14 | -0.68663 | 9.26010 | 1699 ft | 101 kts | 271° |
| 2026-04-13 19:14 | -0.68649 | 9.25306 | 1700 ft | 101 kts | 271° |
| 2026-04-13 19:15 | -0.68635 | 9.24577 | 1699 ft | 101 kts | 271° |
| 2026-04-13 19:15 | -0.68621 | 9.23860 | 1698 ft | 99 kts | 271° |
| 2026-04-13 19:15 | -0.68607 | 9.23146 | 1704 ft | 104 kts | 271° |
| 2026-04-13 19:15 | -0.68591 | 9.22356 | 1706 ft | 113 kts | 271° |
| 2026-04-13 19:16 | -0.68574 | 9.21509 | 1707 ft | 123 kts | 271° |
| 2026-04-13 19:16 | -0.68555 | 9.20597 | 1705 ft | 130 kts | 271° |
| 2026-04-13 19:16 | -0.68536 | 9.19653 | 1703 ft | 136 kts | 271° |
| 2026-04-13 19:16 | -0.68515 | 9.18644 | 1703 ft | 142 kts | 271° |
| 2026-04-13 19:17 | -0.68492 | 9.17587 | 1702 ft | 146 kts | 271° |
| 2026-04-13 19:17 | -0.68469 | 9.16503 | 1701 ft | 149 kts | 271° |
| 2026-04-13 19:17 | -0.68446 | 9.15402 | 1701 ft | 151 kts | 271° |
| 2026-04-13 19:17 | -0.68424 | 9.14332 | 1700 ft | 152 kts | 271° |
| 2026-04-13 19:18 | -0.68401 | 9.13248 | 1700 ft | 153 kts | 271° |
| 2026-04-13 19:18 | -0.68377 | 9.12119 | 1700 ft | 154 kts | 271° |
| 2026-04-13 19:18 | -0.68354 | 9.11024 | 1701 ft | 156 kts | 271° |
| 2026-04-13 19:18 | -0.68331 | 9.09932 | 1701 ft | 158 kts | 271° |
| 2026-04-13 19:19 | -0.68308 | 9.08816 | 1701 ft | 160 kts | 271° |
| 2026-04-13 19:19 | -0.68284 | 9.07690 | 1700 ft | 162 kts | 271° |
| 2026-04-13 19:19 | -0.68261 | 9.06552 | 1700 ft | 162 kts | 271° |
| 2026-04-13 19:19 | -0.68237 | 9.05426 | 1700 ft | 163 kts | 271° |
| 2026-04-13 19:20 | -0.68213 | 9.04279 | 1700 ft | 163 kts | 271° |
| 2026-04-13 19:20 | -0.68189 | 9.03118 | 1700 ft | 163 kts | 271° |
| 2026-04-13 19:20 | -0.68164 | 9.01897 | 1700 ft | 164 kts | 271° |
| 2026-04-13 19:20 | -0.68148 | 9.01108 | 1700 ft | 165 kts | 271° |
| 2026-04-13 19:21 | -0.68124 | 8.99936 | 1700 ft | 167 kts | 271° |
| 2026-04-13 19:21 | -0.68099 | 8.98766 | 1700 ft | 168 kts | 271° |
| 2026-04-13 19:21 | -0.68075 | 8.97589 | 1700 ft | 169 kts | 271° |
| 2026-04-13 19:21 | -0.68051 | 8.96389 | 1701 ft | 171 kts | 271° |
| 2026-04-13 19:22 | -0.68025 | 8.95180 | 1701 ft | 174 kts | 271° |
| 2026-04-13 19:22 | -0.67912 | 8.93947 | 1700 ft | 176 kts | 276° |
| 2026-04-13 19:22 | -0.67783 | 8.92733 | 1700 ft | 176 kts | 276° |
| 2026-04-13 19:22 | -0.67648 | 8.91485 | 1700 ft | 177 kts | 276° |
| 2026-04-13 19:23 | -0.67516 | 8.90263 | 1700 ft | 177 kts | 276° |
| 2026-04-13 19:23 | -0.67335 | 8.89028 | 1697 ft | 174 kts | 284° |
| 2026-04-13 19:23 | -0.67019 | 8.87908 | 1691 ft | 155 kts | 286° |
| 2026-04-13 19:23 | -0.66731 | 8.86909 | 1683 ft | 125 kts | 286° |
| 2026-04-13 19:24 | -0.66505 | 8.86123 | 1682 ft | 101 kts | 286° |
| 2026-04-13 19:24 | -0.66319 | 8.85470 | 1694 ft | 94 kts | 286° |
| 2026-04-13 19:24 | -0.66130 | 8.84810 | 1703 ft | 100 kts | 286° |
| 2026-04-13 19:24 | -0.65880 | 8.84047 | 1713 ft | 121 kts | 292° |
| 2026-04-13 19:25 | -0.65524 | 8.83175 | 1708 ft | 130 kts | 292° |
| 2026-04-13 19:25 | -0.65194 | 8.82361 | 1692 ft | 115 kts | 292° |
| 2026-04-13 19:25 | -0.64915 | 8.81669 | 1686 ft | 97 kts | 292° |
| 2026-04-13 19:25 | -0.64653 | 8.81021 | 1696 ft | 93 kts | 292° |
| 2026-04-13 19:26 | -0.64353 | 8.80391 | 1707 ft | 103 kts | 298° |
| 2026-04-13 19:26 | -0.63996 | 8.79645 | 1709 ft | 117 kts | 286° |
| 2026-04-13 19:26 | -0.63876 | 8.78779 | 1700 ft | 118 kts | 266° |
| 2026-04-13 19:26 | -0.64100 | 8.78015 | 1697 ft | 112 kts | 249° |
| 2026-04-13 19:27 | -0.64470 | 8.77303 | 1700 ft | 112 kts | 238° |
| 2026-04-13 19:27 | -0.64912 | 8.76656 | 1668 ft | 106 kts | 219° |
| 2026-04-13 19:27 | -0.65644 | 8.76528 | 1243 ft | 118 kts | 163° |
| 2026-04-13 19:27 | -0.66398 | 8.76851 | 986 ft | 110 kts | 158° |
| 2026-04-13 19:28 | -0.67164 | 8.77067 | 796 ft | 82 kts | 172° |
| 2026-04-13 19:28 | -0.67653 | 8.76916 | 623 ft | 67 kts | 211° |
| 2026-04-13 19:28 | -0.68067 | 8.76700 | 458 ft | 64 kts | 202° |
| 2026-04-13 19:28 | -0.68474 | 8.76532 | 461 ft | 57 kts | 202° |
| 2026-04-13 19:29 | -0.68879 | 8.76373 | 468 ft | 58 kts | 200° |
| 2026-04-13 19:29 | -0.69297 | 8.76204 | 369 ft | 75 kts | 200° |
| 2026-04-13 19:29 | -0.69790 | 8.76004 | 346 ft | 57 kts | 200° |
| 2026-04-13 19:29 | -0.70238 | 8.75825 | 94 ft | 73 kts | 201° |
| 2026-04-13 19:30 | -0.70752 | 8.75614 | 32 ft | 85 kts | 201° |
| 2026-04-13 19:30 | -0.71264 | 8.75406 | 17 ft | 69 kts | 201° |
| 2026-04-13 19:30 | -0.71667 | 8.75242 | 18 ft | 44 kts | 202° |
| 2026-04-13 19:30 | -0.71763 | 8.75225 | 19 ft | 4 kts | 135° |
| 2026-04-13 19:31 | -0.71793 | 8.75288 | 19 ft | 15 kts | 121° |
| 2026-04-13 19:31 | -0.71889 | 8.75275 | 20 ft | 14 kts | 206° |
| 2026-04-13 19:31 | -0.71982 | 8.75250 | 20 ft | 13 kts | 167° |
| 2026-04-13 19:31 | -0.72067 | 8.75253 | 20 ft | 11 kts | 204° |
| 2026-04-13 19:32 | -0.72096 | 8.75223 | 20 ft | 4 kts | 291° |
| 2026-04-13 19:32 | -0.72093 | 8.75216 | 20 ft | 0 kts | 292° |